EPGD/GDN METAR and TAF weather

Enter ICAO airport designator
Station Type Date Time Source
EPGD METAR 2018/01/24 07:30 UTC NOAA

EPGD 240730Z 20012KT 6000 BKN007 01/00 Q1014 R11/690095


Station Type Date Time Source
EPGD Decoded METAR 2018/01/24 07:30 UTC NOAA

Gdansk-Rebiechowo, Poland (EPGD) 54-23N 018-28E 138M
Jan 24, 2018 - 02:30 AM EST / 2018.01.24 0730 UTC
Wind: from the SSW (200 degrees) at 14 MPH (12 KT):0
Visibility: 3 mile(s):0
Sky conditions: mostly cloudy
Temperature: 33 F (1 C)
Windchill: 23 F (-5 C):1
Dew Point: 32 F (0 C)
Relative Humidity: 93%
Pressure (altimeter): 29.94 in. Hg (1014 hPa)
ob: EPGD 240730Z 20012KT 6000 BKN007 01/00 Q1014 R11/690095
cycle: 7

Station Type Date Time Source
EPGD TAF 2018/01/24 06:33 UTC NOAA

TAF TAF EPGD 240530Z 2406/2506 20010KT 4000 BR BKN006
BECMG 2406/2408 OVC004
TEMPO 2406/2424 1200 -RA DZ BR OVC001 PROB40
TEMPO 2406/2408 -FZDZ PROB30
TEMPO 2409/2424 0700 FG
BECMG 2500/2502 9999 BKN020


Example: see airport list